Time;durP1;ratioP1;P1;durP2;ratioP2;P2;SDS_P1;SDS_P2;PMS_P1;PMS_P2;Temp;Humidity;BMP_temperature;BMP_pressure;BME280_temperature;BME280_humidity;BME280_pressure;Samples;Min_cycle;Max_cycle;Signal;HPM_P1;HPM_P2
2023/03/04 00:00:06;;;;;;;31.30;19.80;;;;;;;-0.54;100.00;99091.47;110442;1275;22273;-69
2023/03/04 00:02:44;;;;;;;34.70;19.70;;;;;;;-0.51;100.00;99085.29;110383;1275;22185;-69
2023/03/04 00:05:13;;;;;;;30.50;18.30;;;;;;;-0.49;100.00;99090.10;110459;1275;22218;-69
2023/03/04 00:07:41;;;;;;;31.50;19.30;;;;;;;-0.49;100.00;99084.28;110472;1275;22615;-69
2023/03/04 00:10:14;;;;;;;28.80;19.00;;;;;;;-0.52;100.00;99090.26;110416;1275;22396;-69
2023/03/04 00:12:44;;;;;;;33.80;20.10;;;;;;;-0.60;100.00;99091.71;110480;1275;23001;-67
2023/03/04 00:15:12;;;;;;;32.40;20.80;;;;;;;-0.62;100.00;99088.06;110442;1275;22926;-67
2023/03/04 00:17:41;;;;;;;33.30;20.20;;;;;;;-0.60;100.00;99085.17;110457;1275;22383;-68
2023/03/04 00:20:09;;;;;;;35.60;19.50;;;;;;;-0.60;100.00;99084.02;110488;1275;22391;-67
2023/03/04 00:22:38;;;;;;;33.70;20.90;;;;;;;-0.65;100.00;99080.84;110467;1275;22258;-67
2023/03/04 00:25:07;;;;;;;39.10;22.70;;;;;;;-0.71;100.00;99077.42;110470;1275;22262;-67
2023/03/04 00:27:36;;;;;;;51.30;28.70;;;;;;;-0.77;100.00;99074.39;110464;1275;22360;-67
2023/03/04 00:30:05;;;;;;;48.30;26.90;;;;;;;-0.76;100.00;99070.15;110465;1275;22462;-67
2023/03/04 00:32:36;;;;;;;43.00;24.70;;;;;;;-0.77;100.00;99060.73;110456;1275;22971;-67
2023/03/04 00:35:05;;;;;;;41.00;22.20;;;;;;;-0.82;100.00;99048.60;110422;1275;22171;-67
2023/03/04 00:37:37;;;;;;;42.10;23.80;;;;;;;-0.89;100.00;99047.16;110334;1275;22518;-67
2023/03/04 00:40:06;;;;;;;35.30;21.10;;;;;;;-0.97;100.00;99043.92;107721;1275;25319;-67
2023/03/04 00:42:35;;;;;;;34.70;21.30;;;;;;;-0.98;100.00;99040.34;107648;1275;22528;-67
2023/03/04 00:45:04;;;;;;;31.50;18.90;;;;;;;-0.98;100.00;99037.76;107845;1275;25284;-67
2023/03/04 00:47:33;;;;;;;30.60;18.80;;;;;;;-0.97;100.00;99038.08;108091;1275;22533;-67
2023/03/04 00:50:01;;;;;;;32.60;19.20;;;;;;;-0.98;100.00;99030.11;107624;1275;22536;-67
2023/03/04 00:52:29;;;;;;;33.40;19.70;;;;;;;-1.03;100.00;99031.71;107561;1275;25335;-67
2023/03/04 00:54:57;;;;;;;32.90;19.60;;;;;;;-1.10;100.00;99037.17;107498;1275;22632;-69
2023/03/04 00:57:26;;;;;;;33.90;20.40;;;;;;;-1.16;100.00;99031.07;107481;1275;24209;-69
2023/03/04 00:59:56;;;;;;;30.70;18.20;;;;;;;-1.16;100.00;99024.67;107414;1275;25352;-69
2023/03/04 01:02:25;;;;;;;31.40;17.80;;;;;;;-1.16;100.00;99028.89;107435;1275;22547;-69
2023/03/04 01:04:54;;;;;;;29.50;18.00;;;;;;;-1.16;100.00;99024.29;107573;1275;25347;-67
2023/03/04 01:07:23;;;;;;;32.40;19.40;;;;;;;-1.19;100.00;99020.70;107552;1272;24203;-67
2023/03/04 01:09:52;;;;;;;33.60;20.80;;;;;;;-1.25;100.00;99017.73;107556;1275;22542;-67
2023/03/04 01:12:20;;;;;;;36.90;20.70;;;;;;;-1.28;100.00;99017.46;107608;1275;22513;-67
2023/03/04 01:14:49;;;;;;;31.90;19.00;;;;;;;-1.25;100.00;99013.41;107484;1275;24247;-67
2023/03/04 01:17:25;;;;;;;34.50;20.70;;;;;;;-1.21;100.00;99009.00;107659;1275;25324;-67
2023/03/04 01:19:53;;;;;;;33.60;21.20;;;;;;;-1.22;100.00;99008.35;107540;1275;25487;-68
2023/03/04 01:22:21;;;;;;;33.00;20.90;;;;;;;-1.26;100.00;99005.41;110200;1269;22276;-68
2023/03/04 01:24:51;;;;;;;36.30;21.20;;;;;;;-1.30;100.00;99006.16;110285;1276;23245;-68
2023/03/04 01:27:19;;;;;;;33.20;20.60;;;;;;;-1.26;100.00;99009.73;110414;1275;22203;-68
2023/03/04 01:29:51;;;;;;;35.00;22.20;;;;;;;-1.22;100.00;99005.60;110410;1276;22278;-67
2023/03/04 01:32:20;;;;;;;31.90;20.70;;;;;;;-1.19;100.00;99001.56;110420;1275;22793;-68
2023/03/04 01:34:48;;;;;;;38.00;22.60;;;;;;;-1.21;100.00;98995.73;110407;1276;22239;-68
2023/03/04 01:37:16;;;;;;;39.00;23.00;;;;;;;-1.24;100.00;98991.09;110397;1275;22594;-68
2023/03/04 01:39:46;;;;;;;39.80;23.40;;;;;;;-1.19;100.00;98994.64;110303;1269;22866;-67
2023/03/04 01:42:18;;;;;;;38.60;23.70;;;;;;;-1.14;100.00;98991.90;110502;1275;22196;-67
2023/03/04 01:44:46;;;;;;;42.70;24.20;;;;;;;-1.15;100.00;98989.40;110383;1275;22190;-67
2023/03/04 01:47:18;;;;;;;40.40;25.10;;;;;;;-1.19;100.00;98983.19;110259;1275;22271;-68
2023/03/04 01:49:52;;;;;;;41.50;25.60;;;;;;;-1.16;100.00;98979.07;110379;1275;22277;-67
2023/03/04 01:52:20;;;;;;;39.20;23.90;;;;;;;-1.12;100.00;98975.48;107649;1275;22634;-67
2023/03/04 01:54:50;;;;;;;44.40;26.60;;;;;;;-1.15;100.00;98972.31;107379;1275;22517;-68
2023/03/04 01:57:20;;;;;;;41.50;25.70;;;;;;;-1.20;100.00;98971.07;107291;1275;25237;-68
2023/03/04 02:00:24;;;;;;;43.70;25.30;;;;;;;-1.19;100.00;98968.64;107509;1275;22584;-68
2023/03/04 02:03:19;;;;;;;47.00;26.20;;;;;;;-1.14;100.00;98970.10;107532;1275;22526;-68
2023/03/04 02:05:49;;;;;;;44.60;23.90;;;;;;;-1.14;100.00;98966.27;107467;1275;26532;-68
2023/03/04 02:08:19;;;;;;;40.80;24.40;;;;;;;-1.19;100.00;98964.56;110361;1275;22189;-68
2023/03/04 02:10:49;;;;;;;46.50;26.10;;;;;;;-1.20;100.00;98965.98;110375;1275;22252;-68
2023/03/04 02:15:39;;;;;;;45.70;26.30;;;;;;;-1.12;100.00;98957.02;104536;1302;545601;-67
2023/03/04 02:18:19;;;;;;;42.70;25.30;;;;;;;-1.16;100.00;98966.81;109587;1288;23547;-68
2023/03/04 02:20:47;;;;;;;43.50;26.70;;;;;;;-1.13;100.00;98965.44;109576;1286;23175;-67
2023/03/04 02:23:22;;;;;;;47.60;26.50;;;;;;;-1.09;100.00;98966.15;110395;1273;22483;-67
2023/03/04 02:26:13;;;;;;;49.30;27.00;;;;;;;-1.06;100.00;98966.98;110425;1276;23241;-68
2023/03/04 02:28:42;;;;;;;43.60;26.30;;;;;;;-1.09;100.00;98964.55;110262;1273;235188;-67
2023/03/04 02:31:39;;;;;;;47.50;25.90;;;;;;;-1.12;100.00;98956.80;110491;1274;22238;-68
2023/03/04 02:34:19;;;;;;;45.30;26.90;;;;;;;-1.05;100.00;98950.80;110468;1275;22409;-67
2023/03/04 02:36:47;;;;;;;44.10;25.00;;;;;;;-1.01;100.00;98940.77;110451;1272;22408;-68
2023/03/04 02:39:19;;;;;;;44.40;26.30;;;;;;;-1.03;100.00;98936.35;110352;1273;22244;-68
2023/03/04 02:41:48;;;;;;;42.70;26.00;;;;;;;-1.06;100.00;98930.20;110649;1273;22188;-68
2023/03/04 02:44:19;;;;;;;46.00;26.30;;;;;;;-1.03;100.00;98926.70;110488;1273;22252;-67
2023/03/04 02:46:49;;;;;;;43.30;25.60;;;;;;;-0.99;100.00;98921.98;110343;1273;22547;-68
2023/03/04 02:49:18;;;;;;;43.40;26.20;;;;;;;-0.95;100.00;98920.02;107486;1273;25328;-68
2023/03/04 02:51:51;;;;;;;41.90;25.20;;;;;;;-0.96;100.00;98916.37;107817;1273;26493;-68
2023/03/04 02:54:21;;;;;;;44.30;26.00;;;;;;;-0.98;100.00;98909.64;108927;1273;22602;-68
2023/03/04 02:56:51;;;;;;;44.40;25.30;;;;;;;-0.98;100.00;98910.39;107970;1274;25491;-68
2023/03/04 02:59:21;;;;;;;41.60;25.20;;;;;;;-0.93;100.00;98917.86;108018;1274;26247;-68
2023/03/04 03:01:54;;;;;;;42.70;25.40;;;;;;;-0.90;100.00;98918.14;107644;1274;22605;-68
2023/03/04 03:04:23;;;;;;;45.40;26.20;;;;;;;-0.90;100.00;98919.87;107483;1273;22542;-68
2023/03/04 03:06:52;;;;;;;39.90;25.10;;;;;;;-0.90;100.00;98921.79;107480;1273;22514;-68
2023/03/04 03:09:22;;;;;;;50.40;27.30;;;;;;;-0.85;100.00;98923.56;107717;1273;23574;-68
2023/03/04 03:11:50;;;;;;;46.90;27.30;;;;;;;-0.79;100.00;98916.39;107700;1273;22517;-68
2023/03/04 03:14:19;;;;;;;46.30;26.30;;;;;;;-0.80;100.00;98908.71;107669;1273;22620;-69
2023/03/04 03:16:48;;;;;;;44.20;26.20;;;;;;;-0.81;100.00;98908.85;107750;1274;22641;-69
2023/03/04 03:19:16;;;;;;;41.10;25.00;;;;;;;-0.76;100.00;98909.05;110443;1275;22899;-69
2023/03/04 03:21:45;;;;;;;45.70;25.50;;;;;;;-0.73;100.00;98910.91;110433;1274;22961;-68
2023/03/04 03:24:14;;;;;;;47.40;25.00;;;;;;;-0.73;100.00;98916.26;110518;1273;22221;-69
2023/03/04 03:26:42;;;;;;;42.70;25.20;;;;;;;-0.64;100.00;98909.23;110450;1274;22480;-69
2023/03/04 03:29:13;;;;;;;42.40;25.00;;;;;;;-0.57;100.00;98896.83;110414;1275;22258;-69
2023/03/04 03:31:41;;;;;;;41.90;24.80;;;;;;;-0.56;100.00;98888.41;110402;1275;22198;-69
2023/03/04 03:34:09;;;;;;;41.40;25.30;;;;;;;-0.50;100.00;98891.27;110380;1274;22158;-69
2023/03/04 03:36:39;;;;;;;43.10;25.40;;;;;;;-0.44;100.00;98888.55;110415;1274;22214;-69
2023/03/04 03:39:09;;;;;;;42.90;25.20;;;;;;;-0.44;100.00;98883.79;110535;1274;22930;-69
2023/03/04 03:41:37;;;;;;;40.70;24.70;;;;;;;-0.41;100.00;98880.13;108501;1274;25520;-68
2023/03/04 03:44:06;;;;;;;39.70;24.50;;;;;;;-0.34;100.00;98883.51;107697;1274;22993;-68
2023/03/04 03:46:34;;;;;;;43.50;25.50;;;;;;;-0.31;100.00;98885.58;107601;1274;23383;-68
2023/03/04 03:49:02;;;;;;;47.60;27.20;;;;;;;-0.32;100.00;98876.77;107482;1274;25498;-68
2023/03/04 03:51:31;;;;;;;44.10;26.10;;;;;;;-0.26;100.00;98870.26;107597;1274;22621;-68
2023/03/04 03:54:00;;;;;;;41.40;25.00;;;;;;;-0.19;100.00;98865.33;107882;1274;23307;-68
2023/03/04 03:56:28;;;;;;;42.70;25.60;;;;;;;-0.20;100.00;98867.22;107641;1275;22549;-68
2023/03/04 03:58:56;;;;;;;42.70;24.50;;;;;;;-0.20;100.00;98866.44;107569;1275;23228;-68
2023/03/04 04:01:25;;;;;;;41.30;25.30;;;;;;;-0.14;100.00;98862.91;107673;1275;24255;-68
2023/03/04 04:03:53;;;;;;;44.50;26.90;;;;;;;-0.13;100.00;98858.77;107659;1275;28120;-68
2023/03/04 04:06:22;;;;;;;41.30;24.70;;;;;;;-0.14;100.00;98857.55;107540;1275;25334;-68
2023/03/04 04:08:50;;;;;;;41.20;24.00;;;;;;;-0.11;100.00;98850.44;107530;1275;25283;-68
2023/03/04 04:11:18;;;;;;;43.00;24.10;;;;;;;-0.06;100.00;98839.06;107653;1275;25366;-69
2023/03/04 04:13:47;;;;;;;45.40;26.00;;;;;;;-0.07;100.00;98831.86;107800;1274;25139;-68
2023/03/04 04:16:16;;;;;;;41.00;25.40;;;;;;;-0.09;100.00;98827.73;107633;1275;24706;-68
2023/03/04 04:18:46;;;;;;;43.80;25.40;;;;;;;-0.06;100.00;98824.46;110347;1275;23271;-68
2023/03/04 04:21:15;;;;;;;40.40;24.10;;;;;;;-0.02;100.00;98812.91;110468;1274;22264;-69
2023/03/04 04:23:43;;;;;;;45.80;26.40;;;;;;;-0.02;100.00;98812.05;110520;1274;22182;-69
2023/03/04 04:26:11;;;;;;;39.60;24.40;;;;;;;-0.04;100.00;98806.52;110452;1274;22209;-69
2023/03/04 04:28:39;;;;;;;39.90;23.90;;;;;;;0.02;100.00;98806.70;110495;1273;22273;-69
2023/03/04 04:31:08;;;;;;;41.50;25.10;;;;;;;0.04;100.00;98798.18;110492;1274;23172;-69
2023/03/04 04:33:38;;;;;;;41.10;24.60;;;;;;;0.03;100.00;98795.97;110444;1275;23007;-69
2023/03/04 04:36:08;;;;;;;39.10;24.80;;;;;;;0.07;100.00;98787.77;110454;1275;22438;-66
2023/03/04 04:38:36;;;;;;;39.30;22.60;;;;;;;0.14;100.00;98780.52;110474;1275;22354;-69
2023/03/04 04:41:04;;;;;;;39.90;24.30;;;;;;;0.15;100.00;98773.04;110483;1274;23107;-68
2023/03/04 04:43:32;;;;;;;37.40;22.60;;;;;;;0.19;100.00;98761.77;110453;1273;22198;-69
2023/03/04 04:46:01;;;;;;;42.20;23.60;;;;;;;0.22;100.00;98758.10;110536;1274;22187;-69
2023/03/04 04:48:29;;;;;;;36.10;21.70;;;;;;;0.21;100.00;98758.71;110514;1274;22233;-69
2023/03/04 04:50:58;;;;;;;43.10;22.80;;;;;;;0.24;100.00;98762.79;110483;1274;23238;-69
2023/03/04 04:53:27;;;;;;;34.10;21.10;;;;;;;0.26;100.00;98763.44;110484;1274;22220;-69
2023/03/04 04:55:56;;;;;;;39.80;22.50;;;;;;;0.25;100.00;98758.06;110519;1274;22675;-69
2023/03/04 04:58:24;;;;;;;38.80;21.40;;;;;;;0.24;100.00;98756.06;110536;1274;22422;-69
2023/03/04 05:00:56;;;;;;;38.20;21.90;;;;;;;0.28;100.00;98757.11;110504;1274;22433;-69
2023/03/04 05:03:26;;;;;;;33.80;20.90;;;;;;;0.32;100.00;98747.66;110495;1274;22193;-69
2023/03/04 05:05:54;;;;;;;36.70;20.60;;;;;;;0.32;100.00;98745.07;110516;1274;22218;-69
2023/03/04 05:08:24;;;;;;;36.60;21.20;;;;;;;0.28;100.00;98734.67;110501;1274;22558;-68
2023/03/04 05:10:53;;;;;;;37.20;21.70;;;;;;;0.31;100.00;98728.40;110450;1273;22233;-68
2023/03/04 05:13:26;;;;;;;38.90;21.90;;;;;;;0.34;100.00;98723.33;110449;1275;23111;-69
2023/03/04 05:15:55;;;;;;;38.70;22.40;;;;;;;0.30;100.00;98725.33;110450;1275;22371;-69
2023/03/04 05:18:23;;;;;;;35.00;20.50;;;;;;;0.30;100.00;98730.44;110463;1274;22218;-69
2023/03/04 05:20:54;;;;;;;35.30;22.30;;;;;;;0.35;100.00;98723.30;110506;1274;22225;-69
2023/03/04 05:23:24;;;;;;;40.40;21.80;;;;;;;0.36;100.00;98719.10;110467;1274;22676;-69
2023/03/04 05:25:52;;;;;;;36.70;20.50;;;;;;;0.34;100.00;98721.47;109199;1274;22634;-68
2023/03/04 05:28:21;;;;;;;37.70;20.90;;;;;;;0.39;100.00;98716.33;107543;1274;26018;-68
2023/03/04 05:30:49;;;;;;;33.80;20.60;;;;;;;0.43;100.00;98714.77;107481;1275;25300;-68
2023/03/04 05:33:18;;;;;;;37.30;21.50;;;;;;;0.42;100.00;98718.55;107634;1275;26212;-69
2023/03/04 05:35:47;;;;;;;39.80;20.90;;;;;;;0.39;100.00;98716.44;107632;1275;22563;-66
2023/03/04 05:38:21;;;;;;;34.30;20.40;;;;;;;0.45;100.00;98709.67;107727;1270;23287;-68
2023/03/04 05:40:58;;;;;;;36.20;21.00;;;;;;;0.49;100.00;98707.52;107817;1274;23227;-68
2023/03/04 05:43:27;;;;;;;38.80;22.30;;;;;;;0.47;100.00;98710.21;108043;1274;22528;-68
2023/03/04 05:45:56;;;;;;;39.80;21.60;;;;;;;0.46;100.00;98705.75;107542;1274;25471;-68
2023/03/04 05:48:24;;;;;;;34.60;20.10;;;;;;;0.53;100.00;98694.60;107586;1274;22462;-68
2023/03/04 05:50:56;;;;;;;35.10;20.10;;;;;;;0.59;100.00;98688.89;107581;1275;22693;-68
2023/03/04 05:53:25;;;;;;;35.50;21.30;;;;;;;0.59;100.00;98694.08;107700;1275;23560;-68
2023/03/04 05:55:54;;;;;;;37.90;22.70;;;;;;;0.56;100.00;98695.21;107632;1275;23370;-68
2023/03/04 05:58:23;;;;;;;38.50;20.90;;;;;;;0.61;100.00;98692.64;107653;1267;22563;-68
2023/03/04 06:00:51;;;;;;;36.70;20.80;;;;;;;0.68;100.00;98688.20;107627;1275;23347;-68
2023/03/04 06:03:21;;;;;;;34.60;20.50;;;;;;;0.69;100.00;98686.07;107490;1275;25356;-68
2023/03/04 06:05:49;;;;;;;38.10;21.00;;;;;;;0.68;100.00;98686.00;107406;1275;22598;-68
2023/03/04 06:08:20;;;;;;;40.40;22.50;;;;;;;0.72;100.00;98678.55;107456;1275;23881;-67
2023/03/04 06:10:51;;;;;;;38.90;21.80;;;;;;;0.73;100.00;98668.86;107302;1275;25481;-68
2023/03/04 06:13:25;;;;;;;40.10;22.60;;;;;;;0.74;100.00;98671.88;110422;1275;23159;-68
2023/03/04 06:15:55;;;;;;;36.80;21.60;;;;;;;0.80;100.00;98668.23;110498;1274;22442;-68
2023/03/04 06:18:23;;;;;;;40.80;22.00;;;;;;;0.88;100.00;98665.27;110505;1274;22414;-68
2023/03/04 06:20:59;;;;;;;39.80;22.50;;;;;;;0.87;100.00;98661.17;110488;1274;22269;-68
2023/03/04 06:23:29;;;;;;;40.40;21.90;;;;;;;0.87;100.00;98652.51;110517;1274;22204;-68
2023/03/04 06:25:57;;;;;;;40.80;22.80;;;;;;;0.95;100.00;98654.13;110444;1267;22386;-68
2023/03/04 06:28:26;;;;;;;36.70;21.40;;;;;;;0.99;100.00;98656.68;110507;1274;22214;-68
2023/03/04 06:30:55;;;;;;;37.90;21.40;;;;;;;0.98;100.00;98655.01;108801;1274;22893;-68
2023/03/04 06:33:24;;;;;;;35.70;21.00;;;;;;;1.04;100.00;98652.65;107622;1274;23136;-67
2023/03/04 06:35:54;;;;;;;37.30;21.40;;;;;;;1.08;100.00;98650.64;107690;1274;24266;-67
2023/03/04 06:38:23;;;;;;;40.40;23.10;;;;;;;1.08;100.00;98648.42;108181;1274;23112;-67
2023/03/04 06:40:53;;;;;;;40.20;23.70;;;;;;;1.07;100.00;98644.39;107580;1274;25080;-68
2023/03/04 06:43:25;;;;;;;39.60;21.70;;;;;;;1.13;100.00;98644.79;107586;1274;22520;-67
2023/03/04 06:45:55;;;;;;;39.70;23.50;;;;;;;1.25;100.00;98647.98;107677;1274;25325;-68
2023/03/04 06:48:24;;;;;;;38.00;23.40;;;;;;;1.33;100.00;98646.05;107691;1274;25362;-68
2023/03/04 06:50:52;;;;;;;43.30;27.20;;;;;;;1.36;100.00;98635.33;107647;1274;22555;-68
2023/03/04 06:53:22;;;;;;;42.10;25.00;;;;;;;1.40;100.00;98633.80;108224;1274;25334;-68
2023/03/04 06:55:54;;;;;;;40.20;24.30;;;;;;;1.49;100.00;98627.53;107624;1274;25462;-68
2023/03/04 06:58:23;;;;;;;43.80;26.20;;;;;;;1.55;100.00;98630.20;107567;1274;25336;-67
2023/03/04 07:00:51;;;;;;;44.00;25.00;;;;;;;1.56;100.00;98628.42;107572;1274;22573;-68
2023/03/04 07:03:19;;;;;;;40.70;25.30;;;;;;;1.62;100.00;98617.58;107678;1274;26278;-67
2023/03/04 07:05:48;;;;;;;44.50;26.70;;;;;;;1.70;100.00;98607.67;107789;1270;22614;-67
2023/03/04 07:08:17;;;;;;;47.30;27.20;;;;;;;1.75;100.00;98603.96;107671;1271;25064;-68
2023/03/04 07:10:52;;;;;;;42.60;25.50;;;;;;;1.82;100.00;98605.11;107652;1274;23698;-68
2023/03/04 07:13:20;;;;;;;42.80;27.10;;;;;;;1.93;100.00;98602.02;107704;1274;22637;-68
2023/03/04 07:15:53;;;;;;;43.80;26.90;;;;;;;2.00;100.00;98604.23;107649;1274;22975;-68
2023/03/04 07:18:21;;;;;;;45.60;27.70;;;;;;;2.02;100.00;98599.80;107531;1274;25813;-68
2023/03/04 07:20:51;;;;;;;44.90;27.30;;;;;;;2.07;100.00;98601.66;107550;1274;24307;-68
2023/03/04 07:23:21;;;;;;;44.10;27.30;;;;;;;2.17;100.00;98594.60;107671;1267;25460;-68
2023/03/04 07:25:49;;;;;;;46.30;28.20;;;;;;;2.17;100.00;98594.44;107690;1274;24491;-68
2023/03/04 07:28:17;;;;;;;49.40;28.70;;;;;;;2.14;100.00;98591.45;107684;1274;22524;-68
2023/03/04 07:30:45;;;;;;;49.30;29.20;;;;;;;2.18;100.00;98583.45;107695;1274;23453;-68
2023/03/04 07:33:18;;;;;;;49.80;30.00;;;;;;;2.22;100.00;98579.06;107645;1274;22530;-68
2023/03/04 07:35:47;;;;;;;54.10;29.10;;;;;;;2.22;100.00;98573.85;107649;1274;22595;-68
2023/03/04 07:38:15;;;;;;;50.70;29.40;;;;;;;2.32;100.00;98574.96;107631;1274;22752;-67
2023/03/04 07:40:44;;;;;;;52.20;30.90;;;;;;;2.40;100.00;98572.67;107670;1274;24250;-68
2023/03/04 07:43:13;;;;;;;49.40;29.70;;;;;;;2.45;100.00;98567.09;107736;1274;25335;-68
2023/03/04 07:45:41;;;;;;;49.60;29.50;;;;;;;2.52;100.00;98565.95;107585;1274;25231;-68
2023/03/04 07:48:11;;;;;;;47.50;29.00;;;;;;;2.63;100.00;98564.50;107527;1275;24381;-68
2023/03/04 07:50:39;;;;;;;48.80;28.90;;;;;;;2.68;100.00;98560.20;107423;1275;22648;-68
2023/03/04 07:53:08;;;;;;;48.80;28.80;;;;;;;2.76;100.00;98563.80;107574;1274;22543;-67
2023/03/04 07:55:36;;;;;;;46.20;27.50;;;;;;;2.82;100.00;98561.30;107660;1274;22544;-68
2023/03/04 07:58:04;;;;;;;46.00;28.40;;;;;;;2.89;100.00;98554.83;107711;1274;22689;-68
2023/03/04 08:00:33;;;;;;;46.90;28.60;;;;;;;2.91;100.00;98552.73;107656;1274;25331;-68
2023/03/04 08:03:03;;;;;;;45.50;27.10;;;;;;;2.88;100.00;98542.07;107575;1275;22627;-68
2023/03/04 08:05:32;;;;;;;44.90;27.80;;;;;;;2.78;100.00;98541.67;107644;1275;23248;-68
2023/03/04 08:08:00;;;;;;;47.00;27.50;;;;;;;2.68;100.00;98538.85;107591;1257;22962;-68
2023/03/04 08:10:28;;;;;;;45.00;27.70;;;;;;;2.64;100.00;98536.33;107617;1274;25353;-68
2023/03/04 08:12:56;;;;;;;47.70;27.60;;;;;;;2.54;100.00;98533.36;107604;1274;22527;-68
2023/03/04 08:15:26;;;;;;;48.80;28.70;;;;;;;2.46;100.00;98527.25;107569;1274;22594;-68
2023/03/04 08:17:55;;;;;;;46.30;26.80;;;;;;;2.42;100.00;98528.45;110516;1274;23164;-68
2023/03/04 08:20:24;;;;;;;45.10;26.70;;;;;;;2.49;100.00;98530.98;110527;1267;22282;-68
2023/03/04 08:22:53;;;;;;;46.50;27.00;;;;;;;2.57;100.00;98531.04;110519;1273;22316;-68
2023/03/04 08:25:22;;;;;;;51.60;28.30;;;;;;;2.59;100.00;98528.16;108645;1274;25916;-68
2023/03/04 08:27:51;;;;;;;44.80;26.00;;;;;;;2.63;100.00;98526.23;107670;1274;23168;-68
2023/03/04 08:30:21;;;;;;;45.40;26.40;;;;;;;2.68;100.00;98520.29;107636;1273;22645;-67
2023/03/04 08:32:49;;;;;;;42.30;26.00;;;;;;;2.68;100.00;98516.30;107766;1274;22672;-68
2023/03/04 08:35:17;;;;;;;46.20;28.00;;;;;;;2.65;100.00;98516.75;107627;1274;27566;-68
2023/03/04 08:37:47;;;;;;;45.90;25.20;;;;;;;2.69;100.00;98516.41;107622;1274;25343;-68
2023/03/04 08:40:15;;;;;;;44.60;27.00;;;;;;;2.81;100.00;98519.20;107498;1274;22628;-68
2023/03/04 08:42:43;;;;;;;44.70;26.80;;;;;;;2.88;100.00;98516.76;107568;1270;24360;-68
2023/03/04 08:45:13;;;;;;;41.30;26.10;;;;;;;2.93;100.00;98514.07;107334;1274;26416;-69
2023/03/04 08:47:41;;;;;;;44.50;26.00;;;;;;;2.97;100.00;98511.52;107402;1274;25369;-68
2023/03/04 08:50:12;;;;;;;42.90;24.70;;;;;;;3.06;100.00;98514.31;107594;1274;23357;-69
2023/03/04 08:52:42;;;;;;;41.40;24.90;;;;;;;3.08;100.00;98512.67;107620;1275;25339;-69
2023/03/04 08:55:17;;;;;;;43.10;26.10;;;;;;;3.07;100.00;98514.71;107512;1275;25532;-68
2023/03/04 08:57:45;;;;;;;44.10;25.60;;;;;;;3.11;100.00;98512.38;107351;1275;22525;-69
2023/03/04 09:00:15;;;;;;;44.00;25.20;;;;;;;3.15;100.00;98507.58;107963;1275;22636;-68
2023/03/04 09:03:04;;;;;;;41.40;24.90;;;;;;;3.24;100.00;98505.80;107572;1274;22543;-68
2023/03/04 09:05:35;;;;;;;36.90;23.80;;;;;;;3.29;100.00;98499.39;107645;1274;23497;-68
2023/03/04 09:08:03;;;;;;;45.90;26.20;;;;;;;3.41;100.00;98495.41;107749;1274;26509;-68
2023/03/04 09:10:31;;;;;;;41.10;24.80;;;;;;;3.53;100.00;98496.11;107724;1274;22937;-68
2023/03/04 09:13:00;;;;;;;42.10;24.70;;;;;;;3.51;100.00;98495.88;107747;1274;26329;-68
2023/03/04 09:15:30;;;;;;;44.20;26.30;;;;;;;3.43;100.00;98496.23;107696;1274;24310;-68
2023/03/04 09:17:58;;;;;;;38.10;23.30;;;;;;;3.38;100.00;98491.03;108709;1274;22309;-69
2023/03/04 09:20:30;;;;;;;36.90;22.50;;;;;;;3.38;100.00;98493.34;110341;1274;22201;-69
2023/03/04 09:22:59;;;;;;;39.20;24.50;;;;;;;3.32;100.00;98488.77;110421;1275;23113;-69
2023/03/04 09:25:27;;;;;;;38.60;24.10;;;;;;;3.28;100.00;98483.29;110423;1275;22272;-69
2023/03/04 09:27:55;;;;;;;37.50;23.50;;;;;;;3.26;100.00;98480.47;110491;1274;22228;-68
2023/03/04 09:30:24;;;;;;;39.90;23.90;;;;;;;3.31;100.00;98480.30;110537;1274;22252;-69
2023/03/04 09:33:00;;;;;;;40.70;23.30;;;;;;;3.42;100.00;98478.79;110517;1274;22224;-69
2023/03/04 09:35:28;;;;;;;39.90;22.80;;;;;;;3.47;100.00;98471.58;110513;1274;22337;-70
2023/03/04 09:37:57;;;;;;;37.50;22.30;;;;;;;3.46;100.00;98472.59;110304;1274;25195;-69
2023/03/04 09:40:28;;;;;;;34.60;21.80;;;;;;;3.43;100.00;98472.45;107778;1274;22553;-68
2023/03/04 09:42:59;;;;;;;40.20;23.80;;;;;;;3.40;100.00;98468.49;107456;1274;24224;-68
2023/03/04 09:45:37;;;;;;;37.00;22.70;;;;;;;3.39;100.00;98471.89;107492;1274;22767;-68
2023/03/04 09:48:09;;;;;;;35.20;22.50;;;;;;;3.33;100.00;98472.04;107540;1275;23409;-68
2023/03/04 09:50:38;;;;;;;37.20;22.30;;;;;;;3.16;100.00;98468.02;107455;1275;25325;-68
2023/03/04 09:53:17;;;;;;;35.30;21.40;;;;;;;3.01;100.00;98469.85;107438;1275;25514;-68
2023/03/04 09:55:49;;;;;;;39.00;21.90;;;;;;;2.87;100.00;98472.18;107428;1275;22813;-68
2023/03/04 09:58:20;;;;;;;38.70;22.80;;;;;;;2.83;100.00;98474.71;107468;1274;22541;-68
2023/03/04 10:00:57;;;;;;;35.90;21.80;;;;;;;2.76;100.00;98470.28;107527;1274;22547;-68
2023/03/04 10:03:47;;;;;;;37.30;21.90;;;;;;;2.68;100.00;98467.66;110508;1274;22442;-68
2023/03/04 10:06:16;;;;;;;33.00;21.40;;;;;;;2.65;100.00;98472.80;110274;1274;22326;-68
2023/03/04 10:08:53;;;;;;;33.00;20.80;;;;;;;2.64;100.00;98471.05;110422;1274;23469;-67
2023/03/04 10:12:00;;;;;;;32.30;20.20;;;;;;;2.66;100.00;98472.59;110479;1274;22187;-68
2023/03/04 10:14:33;;;;;;;34.50;20.70;;;;;;;2.64;100.00;98470.30;110530;1274;22218;-69
2023/03/04 10:17:23;;;;;;;30.10;19.30;;;;;;;2.61;100.00;98463.34;110480;1274;23063;-68
2023/03/04 10:20:03;;;;;;;35.40;18.80;;;;;;;2.62;100.00;98468.08;110455;1273;23048;-68
2023/03/04 10:22:34;;;;;;;29.10;18.70;;;;;;;2.58;100.00;98462.83;110398;1275;23523;-68
2023/03/04 10:25:24;;;;;;;30.90;19.60;;;;;;;2.49;100.00;98468.77;110361;1273;22202;-68
2023/03/04 10:27:55;;;;;;;31.20;20.20;;;;;;;2.39;100.00;98461.19;108479;1268;22717;-67
2023/03/04 10:30:58;;;;;;;30.10;19.50;;;;;;;2.32;100.00;98464.86;107470;1273;25436;-68
2023/03/04 10:33:31;;;;;;;31.90;18.90;;;;;;;2.22;100.00;98464.03;107553;1274;26327;-68
2023/03/04 10:36:02;;;;;;;28.80;18.70;;;;;;;2.16;100.00;98459.33;107667;1267;22563;-67
2023/03/04 10:38:38;;;;;;;30.80;18.80;;;;;;;2.09;100.00;98463.85;107738;1275;26121;-68
2023/03/04 10:41:15;;;;;;;30.20;19.10;;;;;;;1.96;100.00;98452.36;107764;1275;25338;-68
2023/03/04 10:44:14;;;;;;;31.20;19.10;;;;;;;1.89;100.00;98447.69;107691;1273;23366;-68
2023/03/04 10:46:45;;;;;;;29.40;19.20;;;;;;;1.85;100.00;98445.42;107703;1273;22525;-68
2023/03/04 10:49:18;;;;;;;29.90;19.30;;;;;;;1.92;100.00;98434.27;107844;1274;25328;-67
2023/03/04 10:51:49;;;;;;;28.70;19.10;;;;;;;2.01;100.00;98424.98;107728;1274;25297;-68
2023/03/04 10:54:25;;;;;;;29.50;18.40;;;;;;;2.12;100.00;98423.15;107788;1267;24282;-68
2023/03/04 10:57:03;;;;;;;29.50;18.90;;;;;;;2.24;100.00;98416.42;107588;1274;25385;-68
2023/03/04 10:59:38;;;;;;;29.10;19.50;;;;;;;2.39;100.00;98407.54;107708;1275;25488;-68
2023/03/04 11:02:32;;;;;;;27.60;17.90;;;;;;;2.64;100.00;98403.24;107688;1273;26167;-68
2023/03/04 11:05:17;;;;;;;25.40;16.80;;;;;;;2.90;100.00;98397.81;107686;1273;23656;-68
2023/03/04 11:07:51;;;;;;;28.90;18.30;;;;;;;3.11;100.00;98400.58;107670;1273;22625;-68
2023/03/04 11:10:37;;;;;;;28.80;18.60;;;;;;;3.30;100.00;98393.58;107657;1273;23899;-68
2023/03/04 11:13:10;;;;;;;31.10;19.80;;;;;;;3.37;100.00;98389.65;108607;1274;22418;-69
2023/03/04 11:15:57;;;;;;;30.30;18.80;;;;;;;3.33;100.00;98383.17;110429;1274;22193;-69
2023/03/04 11:18:46;;;;;;;31.60;18.30;;;;;;;3.29;100.00;98383.52;110357;1275;22201;-69
2023/03/04 11:21:19;;;;;;;30.20;18.90;;;;;;;3.19;100.00;98381.22;110351;1274;22397;-68
2023/03/04 11:23:54;;;;;;;27.20;18.80;;;;;;;3.10;100.00;98380.94;110332;1275;22266;-68
2023/03/04 11:26:32;;;;;;;28.60;18.50;;;;;;;3.08;100.00;98372.20;110341;1275;22265;-69